createdAt,value
2022-11-13T00:04:25.298Z,0
2022-11-13T00:09:25.340Z,0
2022-11-13T00:14:24.563Z,0
2022-11-13T00:19:24.634Z,0
2022-11-13T00:24:24.953Z,0
2022-11-13T00:29:25.152Z,0
2022-11-13T00:34:46.626Z,0
2022-11-13T00:39:25.319Z,0
2022-11-13T00:44:24.832Z,0
2022-11-13T00:49:24.930Z,0
2022-11-13T00:54:25.375Z,0
2022-11-13T00:59:24.624Z,0
2022-11-13T01:04:24.988Z,0
2022-11-13T01:09:25.215Z,0
2022-11-13T01:14:24.985Z,0
2022-11-13T01:19:25.277Z,0
2022-11-13T01:24:24.747Z,0
2022-11-13T01:29:25.228Z,0
2022-11-13T01:34:24.509Z,0
2022-11-13T01:39:24.753Z,0
2022-11-13T01:44:25.184Z,0
2022-11-13T01:49:25.305Z,0
2022-11-13T01:54:25.505Z,0
2022-11-13T01:59:24.587Z,0
2022-11-13T02:04:25.087Z,0
2022-11-13T02:09:25.388Z,0
2022-11-13T02:14:24.898Z,0
2022-11-13T02:19:25.368Z,0
2022-11-13T02:24:25.458Z,0
2022-11-13T02:29:24.628Z,0
2022-11-13T02:34:24.887Z,0
2022-11-13T02:39:24.966Z,0
2022-11-13T02:44:25.106Z,0
2022-11-13T02:49:25.486Z,0
2022-11-13T02:54:24.784Z,0
2022-11-13T02:59:25.340Z,0
2022-11-13T03:04:24.810Z,0
2022-11-13T03:09:25.327Z,0
2022-11-13T03:14:25.164Z,0
2022-11-13T03:19:25.220Z,0
2022-11-13T03:24:24.803Z,0
2022-11-13T03:29:24.748Z,0
2022-11-13T03:34:25.189Z,0
2022-11-13T03:39:25.522Z,0
2022-11-13T03:44:25.451Z,0
2022-11-13T03:49:24.796Z,0
2022-11-13T03:54:25.327Z,0
2022-11-13T03:59:25.639Z,0
2022-11-13T04:04:25.366Z,0
2022-11-13T04:09:24.686Z,0
2022-11-13T04:14:24.700Z,0
2022-11-13T04:19:24.852Z,0
2022-11-13T04:24:25.158Z,0
2022-11-13T04:29:24.800Z,0
2022-11-13T04:34:25.222Z,0
2022-11-13T04:39:25.382Z,0
2022-11-13T04:44:24.628Z,0
2022-11-13T04:49:24.712Z,0
2022-11-13T04:54:28.581Z,0
2022-11-13T04:59:25.089Z,0
2022-11-13T05:04:25.618Z,0
2022-11-13T05:09:25.229Z,0
2022-11-13T05:14:25.475Z,0
2022-11-13T05:19:25.581Z,0
2022-11-13T05:24:24.941Z,0
2022-11-13T05:29:25.316Z,0
2022-11-13T05:34:25.607Z,0
2022-11-13T05:39:24.918Z,0
2022-11-13T05:44:25.182Z,0
2022-11-13T05:49:25.082Z,0
2022-11-13T05:54:25.566Z,0
2022-11-13T05:59:24.964Z,0
2022-11-13T06:04:25.286Z,0
2022-11-13T06:09:24.823Z,0
2022-11-13T06:14:25.115Z,0
2022-11-13T06:19:25.266Z,0
2022-11-13T06:24:25.577Z,0
2022-11-13T06:29:24.914Z,0
2022-11-13T06:34:25.159Z,0
2022-11-13T06:39:25.443Z,0
2022-11-13T06:44:25.606Z,0
2022-11-13T06:49:24.853Z,0
2022-11-13T06:54:24.988Z,0
2022-11-13T06:59:25.207Z,0
2022-11-13T07:04:25.568Z,9.3
2022-11-13T07:09:24.990Z,9.3
2022-11-13T07:14:25.827Z,15.2
2022-11-13T07:19:24.976Z,15.2
2022-11-13T07:24:25.145Z,22.7
2022-11-13T07:29:25.547Z,22.7
2022-11-13T07:34:33.367Z,23.4
2022-11-13T07:39:25.549Z,23.4
2022-11-13T07:44:47.827Z,21
2022-11-13T07:49:25.473Z,21
2022-11-13T07:54:25.571Z,27
2022-11-13T07:59:25.548Z,27
2022-11-13T08:04:24.899Z,35.3
2022-11-13T08:09:25.001Z,35.3
2022-11-13T08:14:25.315Z,36.3
2022-11-13T08:19:25.713Z,36.3
2022-11-13T08:24:25.115Z,40
2022-11-13T08:29:25.388Z,40
2022-11-13T08:34:25.606Z,44.3
2022-11-13T08:39:24.885Z,44.3
2022-11-13T08:44:25.007Z,51.3
2022-11-13T08:49:25.353Z,51.3
2022-11-13T08:54:24.854Z,55.6
2022-11-13T08:59:25.728Z,55.6
2022-11-13T09:04:24.916Z,51.4
2022-11-13T09:09:25.061Z,51.4
2022-11-13T09:14:25.707Z,51
2022-11-13T09:19:25.042Z,51
2022-11-13T09:24:25.531Z,51.3
2022-11-13T09:29:25.831Z,51.3
2022-11-13T09:34:25.129Z,43
2022-11-13T09:39:25.372Z,43
2022-11-13T09:44:25.648Z,58.8
2022-11-13T09:49:24.913Z,58.8
2022-11-13T09:54:25.473Z,47.8
2022-11-13T09:59:25.695Z,47.8
2022-11-13T10:04:25.040Z,57.1
2022-11-13T10:09:25.286Z,57.1
2022-11-13T10:14:25.753Z,36.1
2022-11-13T10:19:25.066Z,36.1
2022-11-13T10:24:25.193Z,37.2
2022-11-13T10:29:25.352Z,37.2
2022-11-13T10:34:25.585Z,53.7
2022-11-13T10:39:25.790Z,53.7
2022-11-13T10:44:25.455Z,37.7
2022-11-13T10:49:25.546Z,37.7
2022-11-13T10:54:25.045Z,33.2
2022-11-13T10:59:25.261Z,33.2
2022-11-13T11:04:25.643Z,39.4
2022-11-13T11:09:25.952Z,39.4
2022-11-13T11:14:25.552Z,68.2
2022-11-13T11:19:25.745Z,68.2
2022-11-13T11:24:24.847Z,53.7
2022-11-13T11:29:24.944Z,53.7
2022-11-13T11:34:25.405Z,50.4
2022-11-13T11:39:25.653Z,50.4
2022-11-13T11:44:25.727Z,44.3
2022-11-13T11:49:24.945Z,44.3
2022-11-13T11:54:25.237Z,54.4
2022-11-13T11:59:25.416Z,54.4
2022-11-13T12:04:25.572Z,53.3
2022-11-13T12:09:25.887Z,53.3
2022-11-13T12:14:25.426Z,55.5
2022-11-13T12:19:25.653Z,55.5
2022-11-13T12:24:25.872Z,53.4
2022-11-13T12:29:25.038Z,53.4
2022-11-13T12:34:25.664Z,51.7
2022-11-13T12:39:25.875Z,51.7
2022-11-13T12:44:25.012Z,26.7
2022-11-13T12:49:25.292Z,26.7
2022-11-13T12:54:25.604Z,28.9
2022-11-13T12:59:31.603Z,28.9
2022-11-13T13:04:25.266Z,45.5
2022-11-13T13:09:25.478Z,45.5
2022-11-13T13:14:25.577Z,42
2022-11-13T13:19:25.716Z,42
2022-11-13T13:24:25.858Z,39.4
2022-11-13T13:29:25.954Z,39.4
2022-11-13T13:34:25.101Z,34
2022-11-13T13:39:25.271Z,34
2022-11-13T13:44:25.615Z,29.2
2022-11-13T13:49:25.881Z,29.2
2022-11-13T13:54:25.005Z,25.3
2022-11-13T13:59:25.155Z,25.3
2022-11-13T14:04:25.382Z,19.4
2022-11-13T14:09:25.581Z,19.4
2022-11-13T14:14:25.818Z,15.2
2022-11-13T14:19:26.004Z,15.2
2022-11-13T14:24:25.155Z,14.3
2022-11-13T14:29:25.253Z,14.3
2022-11-13T14:34:25.023Z,11.6
2022-11-13T14:39:25.249Z,11.6
2022-11-13T14:44:30.671Z,10.6
2022-11-13T14:49:25.350Z,10.6
2022-11-13T14:54:25.244Z,7
2022-11-13T14:59:25.497Z,7
2022-11-13T15:04:25.285Z,5
2022-11-13T15:09:26.085Z,5
2022-11-13T15:14:25.143Z,0
2022-11-13T15:19:25.977Z,0
2022-11-13T15:24:25.335Z,0
2022-11-13T15:29:25.093Z,0
2022-11-13T15:34:26.039Z,0
2022-11-13T15:39:25.566Z,0
2022-11-13T15:44:25.883Z,0
2022-11-13T15:49:25.661Z,0
2022-11-13T15:54:25.927Z,0
2022-11-13T15:59:25.086Z,0
2022-11-13T16:04:30.174Z,0
2022-11-13T16:09:25.290Z,0
2022-11-13T16:14:25.602Z,0
2022-11-13T16:19:26.122Z,0
2022-11-13T16:24:25.355Z,0
2022-11-13T16:29:25.755Z,0
2022-11-13T16:34:25.027Z,0
2022-11-13T16:39:25.280Z,0
2022-11-13T16:44:25.549Z,0
2022-11-13T16:49:25.782Z,0
2022-11-13T16:54:26.031Z,0
2022-11-13T16:59:25.219Z,0
2022-11-13T17:04:25.444Z,0
2022-11-13T17:09:25.636Z,0
2022-11-13T17:14:25.096Z,0
2022-11-13T17:19:26.016Z,0
2022-11-13T17:24:25.118Z,0
2022-11-13T17:29:25.320Z,0
2022-11-13T17:34:25.729Z,0
2022-11-13T17:39:26.066Z,0
2022-11-13T17:44:25.301Z,0
2022-11-13T17:49:25.286Z,0
2022-11-13T17:54:25.457Z,0
2022-11-13T17:59:25.604Z,0
2022-11-13T18:04:25.380Z,0
2022-11-13T18:09:25.737Z,0
2022-11-13T18:14:26.054Z,0
2022-11-13T18:19:25.350Z,0
2022-11-13T18:24:25.919Z,0
2022-11-13T18:29:25.277Z,0
2022-11-13T18:34:25.511Z,0
2022-11-13T18:39:25.765Z,0
2022-11-13T18:44:26.042Z,0
2022-11-13T18:49:25.932Z,0
2022-11-13T18:54:26.206Z,0
2022-11-13T18:59:25.507Z,0
2022-11-13T19:04:25.809Z,0
2022-11-13T19:09:26.058Z,0
2022-11-13T19:14:25.847Z,0
2022-11-13T19:19:25.160Z,0
2022-11-13T19:24:25.367Z,0
2022-11-13T19:29:25.764Z,0
2022-11-13T19:34:26.087Z,0
2022-11-13T19:39:25.375Z,0
2022-11-13T19:44:25.622Z,0
2022-11-13T19:49:25.889Z,0
2022-11-13T19:54:26.119Z,0
2022-11-13T19:59:25.271Z,0
2022-11-13T20:04:25.594Z,0
2022-11-13T20:09:25.808Z,0
2022-11-13T20:14:25.416Z,0
2022-11-13T20:19:25.631Z,0
2022-11-13T20:24:25.721Z,0
2022-11-13T20:29:25.970Z,0
2022-11-13T20:34:26.256Z,0
2022-11-13T20:39:25.510Z,0
2022-11-13T20:44:25.759Z,0
2022-11-13T20:49:26.359Z,0
2022-11-13T20:54:25.758Z,0
2022-11-13T20:59:26.044Z,0
2022-11-13T21:04:26.150Z,0
2022-11-13T21:09:25.363Z,0
2022-11-13T21:14:25.745Z,0
2022-11-13T21:19:25.582Z,0
2022-11-13T21:24:25.980Z,0
2022-11-13T21:29:25.384Z,0
2022-11-13T21:34:25.765Z,0
2022-11-13T21:39:26.131Z,0
2022-11-13T21:44:25.463Z,0
2022-11-13T21:49:25.543Z,0
2022-11-13T21:54:26.041Z,0
2022-11-13T21:59:25.756Z,0
2022-11-13T22:04:25.529Z,0
2022-11-13T22:09:25.833Z,0
2022-11-13T22:14:25.486Z,0
2022-11-13T22:19:28.475Z,0
2022-11-13T22:24:25.380Z,0
2022-11-13T22:29:25.355Z,0
2022-11-13T22:34:25.900Z,0
2022-11-13T22:39:25.311Z,0
2022-11-13T22:44:35.061Z,0
2022-11-13T22:49:25.842Z,0
2022-11-13T22:54:26.086Z,0
2022-11-13T22:59:26.417Z,0
2022-11-13T23:04:39.942Z,0
2022-11-13T23:09:26.333Z,0
2022-11-13T23:14:25.910Z,0
2022-11-13T23:19:26.126Z,0
2022-11-13T23:24:25.482Z,0
2022-11-13T23:29:25.601Z,0
2022-11-13T23:34:52.683Z,0
2022-11-13T23:39:25.563Z,0
2022-11-13T23:44:25.951Z,0
2022-11-13T23:49:26.190Z,0
2022-11-13T23:54:25.682Z,0
2022-11-13T23:59:25.426Z,0
